Terminal Aerodrome Forecast
Issued by NWS Twin Cities, MN

Home | Current Version | Previous Version | Text Only | Print | Product List | Glossary On
Versions: 1 2 3 4 5 6 7 8 9 10 11 12 13 14
240
FTUS43 KMPX 032341
TAFSTC
TAF
KSTC 032341Z 0400/0424 30007KT P6SM SCT300
     FM040300 24004KT P6SM OVC070
     FM041000 22005KT 4SM -SN BR OVC020
      TEMPO 0412/0416 1SM -SN BR OVC008
     FM041600 30008KT P6SM OVC015=

USA.gov is the U.S. government's official web portal to all federal, state and local government web resources and services.